San Francisco, California
Traffic Map
Current Weather Conditions
San Francisco, California
Overcast
Overcast
21°
Feels Like: 21°
Wind Chill: 21° Ceiling: 1800
Heat Index: 21° Visibility: 10mi
Dew Point: 16° Wind: 10mph
Humidity: 71% Direction: 230° (SW)
Pressure: 30.02in Gusts: 0mph
Raw Report DataKSFO 211956Z 23009KT 10SM FEW012 OVC018 21/16 A3002 RMK AO2 SLP164 T02110156 $
Traffic Incident Summary
Active as of:
Severity:
Category:
InformationThere was an issue retrieving the traffic information for this location. Please try a different location or try again shortly.
Advertisements
Track Severe Weather on mobile